Time;durP1;ratioP1;P1;durP2;ratioP2;P2;SDS_P1;SDS_P2;PMS_P1;PMS_P2;Temp;Humidity;BMP_temperature;BMP_pressure;BME280_temperature;BME280_humidity;BME280_pressure;Samples;Min_cycle;Max_cycle;Signal;HPM_P1;HPM_P2
2022/01/27 00:00:43;;;;;;;46.90;23.87;;;3.90;99.90;;;;;;5076697;28;20437;-71
2022/01/27 00:03:19;;;;;;;51.83;24.40;;;4.00;99.90;;;;;;5076718;28;20488;-71
2022/01/27 00:05:51;;;;;;;50.10;25.90;;;3.90;99.90;;;;;;5076983;28;20507;-71
2022/01/27 00:08:24;;;;;;;43.93;24.57;;;3.80;99.90;;;;;;5076679;28;20436;-71
2022/01/27 00:10:54;;;;;;;48.43;26.00;;;3.90;99.90;;;;;;5076695;28;20894;-71
2022/01/27 00:13:28;;;;;;;54.40;25.83;;;4.00;99.90;;;;;;5076853;28;20448;-71
2022/01/27 00:16:10;;;;;;;53.60;25.83;;;4.00;99.90;;;;;;5076820;28;20544;-71
2022/01/27 00:18:37;;;;;;;53.10;26.10;;;4.00;99.90;;;;;;5076819;28;20486;-71
2022/01/27 00:21:04;;;;;;;50.40;27.10;;;3.90;99.90;;;;;;5077551;28;20440;-71
2022/01/27 00:23:32;;;;;;;54.90;27.10;;;3.90;99.90;;;;;;5076732;28;20474;-71
2022/01/27 00:25:59;;;;;;;49.47;27.03;;;3.90;99.90;;;;;;5076664;28;20465;-71
2022/01/27 00:28:26;;;;;;;46.30;25.77;;;4.00;99.90;;;;;;5076616;28;20443;-71
2022/01/27 00:30:52;;;;;;;47.10;25.67;;;3.90;99.90;;;;;;5076799;28;20794;-71
2022/01/27 00:33:19;;;;;;;49.00;26.93;;;3.90;99.90;;;;;;5076509;28;20440;-71
2022/01/27 00:35:46;;;;;;;53.30;28.37;;;3.90;99.90;;;;;;5076032;28;20920;-71
2022/01/27 00:38:13;;;;;;;47.53;26.30;;;3.90;99.90;;;;;;5076416;28;20437;-71
2022/01/27 00:40:41;;;;;;;54.20;27.50;;;3.90;99.90;;;;;;5076352;28;20444;-71
2022/01/27 00:43:08;;;;;;;53.50;26.77;;;4.00;99.90;;;;;;5076321;28;20444;-71
2022/01/27 00:45:35;;;;;;;52.90;27.30;;;4.00;99.90;;;;;;5076215;28;20822;-71
2022/01/27 00:48:04;;;;;;;52.80;26.57;;;4.10;99.90;;;;;;5076286;28;20445;-72
2022/01/27 00:50:32;;;;;;;55.63;27.73;;;4.20;99.90;;;;;;5076233;28;20885;-71
2022/01/27 00:53:02;;;;;;;47.47;25.07;;;4.20;99.90;;;;;;5076186;28;20428;-72
2022/01/27 00:55:33;;;;;;;57.23;25.77;;;4.30;99.90;;;;;;5074924;28;20485;-72
2022/01/27 00:58:12;;;;;;;51.93;27.70;;;4.40;99.90;;;;;;5076135;28;20432;-71
2022/01/27 01:00:44;;;;;;;51.33;25.63;;;4.30;99.90;;;;;;5075775;28;20964;-71
2022/01/27 01:03:21;;;;;;;48.80;23.90;;;4.40;99.90;;;;;;5075821;28;20555;-71
2022/01/27 01:06:05;;;;;;;55.70;25.10;;;4.50;99.90;;;;;;5075913;28;20468;-71
2022/01/27 01:14:37;;;;;;;55.03;25.87;;;4.60;99.90;;;;;;4994486;28;20487;-71
2022/01/27 01:17:11;;;;;;;52.57;27.57;;;4.60;99.90;;;;;;5051912;28;20464;-72
2022/01/27 01:19:53;;;;;;;46.37;25.37;;;4.60;99.90;;;;;;5075427;28;20899;-72
2022/01/27 01:30:57;;;;;;;46.63;24.80;;;4.60;99.90;;;;;;5075603;28;20400;-72
2022/01/27 01:33:31;;;;;;;45.27;23.53;;;4.70;99.90;;;;;;5075540;28;20432;-72
2022/01/27 01:36:12;;;;;;;47.10;23.33;;;4.60;99.90;;;;;;5075305;28;20487;-72
2022/01/27 01:38:38;;;;;;;46.37;23.43;;;4.60;99.90;;;;;;5075058;28;20945;-71
2022/01/27 01:41:05;;;;;;;45.73;22.40;;;4.50;99.90;;;;;;5075343;28;20433;-72
2022/01/27 01:43:32;;;;;;;46.80;23.47;;;4.50;99.90;;;;;;5074932;28;20935;-72
2022/01/27 01:46:00;;;;;;;49.93;25.17;;;4.60;99.90;;;;;;5075138;28;20490;-71
2022/01/27 01:48:27;;;;;;;46.70;24.33;;;4.50;99.90;;;;;;5074773;28;20961;-72
2022/01/27 01:50:55;;;;;;;42.33;22.40;;;4.60;99.90;;;;;;5075086;28;20444;-71
2022/01/27 01:53:21;;;;;;;43.87;24.30;;;4.50;99.90;;;;;;5074811;28;20448;-72
2022/01/27 01:55:48;;;;;;;44.73;23.17;;;4.60;99.90;;;;;;5074824;28;20488;-71
2022/01/27 01:58:15;;;;;;;37.70;22.57;;;4.50;99.90;;;;;;5074958;28;20451;-71
2022/01/27 02:00:42;;;;;;;38.93;21.57;;;4.50;99.90;;;;;;5074928;28;20441;-71
2022/01/27 02:03:10;;;;;;;48.80;23.00;;;4.50;99.90;;;;;;5074517;28;20463;-71
2022/01/27 02:05:44;;;;;;;47.30;23.23;;;4.40;99.90;;;;;;5074707;28;20469;-72
2022/01/27 02:19:30;;;;;;;37.43;21.13;;;4.40;99.90;;;;;;5074640;28;20400;-72
2022/01/27 02:21:59;;;;;;;43.23;22.90;;;4.40;99.90;;;;;;5074142;28;20899;-72
2022/01/27 02:24:29;;;;;;;41.43;23.97;;;4.50;99.90;;;;;;5074375;28;20436;-72
2022/01/27 02:26:56;;;;;;;44.97;23.87;;;4.60;99.90;;;;;;5075070;28;20551;-71
2022/01/27 02:29:24;;;;;;;42.07;23.10;;;4.60;99.90;;;;;;5074276;28;20440;-72
2022/01/27 02:31:53;;;;;;;42.87;23.07;;;4.70;99.90;;;;;;5074254;28;20440;-72
2022/01/27 02:34:20;;;;;;;41.93;20.90;;;4.60;99.90;;;;;;5074164;28;20432;-71
2022/01/27 02:36:47;;;;;;;40.80;24.27;;;4.80;99.90;;;;;;5074123;28;20495;-72
2022/01/27 02:39:16;;;;;;;44.37;23.53;;;4.80;99.90;;;;;;5074123;28;20452;-72
2022/01/27 02:41:46;;;;;;;37.73;21.70;;;4.80;99.90;;;;;;5074093;28;20444;-72
2022/01/27 02:44:25;;;;;;;45.27;22.80;;;4.80;99.90;;;;;;5074065;28;20789;-72
2022/01/27 02:46:52;;;;;;;39.57;22.20;;;4.80;99.90;;;;;;5073925;28;20473;-72
2022/01/27 02:49:19;;;;;;;41.93;25.10;;;4.80;99.90;;;;;;5073958;28;20480;-72
2022/01/27 02:51:46;;;;;;;39.80;22.27;;;4.80;99.90;;;;;;5073932;28;20524;-72
2022/01/27 02:54:12;;;;;;;40.67;21.57;;;4.80;99.90;;;;;;5073793;28;20449;-72
2022/01/27 02:56:45;;;;;;;43.20;23.23;;;4.80;99.90;;;;;;5073782;28;20469;-71
2022/01/27 02:59:12;;;;;;;40.00;22.13;;;4.80;99.90;;;;;;5073881;28;20437;-71
2022/01/27 03:01:38;;;;;;;46.23;23.57;;;4.80;99.90;;;;;;5074271;28;20448;-71
2022/01/27 03:04:05;;;;;;;43.83;23.90;;;4.70;99.90;;;;;;5073472;28;20475;-71
2022/01/27 03:06:32;;;;;;;42.90;20.80;;;4.70;99.90;;;;;;5073348;28;20461;-72
2022/01/27 03:08:59;;;;;;;40.30;21.17;;;4.70;99.90;;;;;;5073691;28;20452;-72
2022/01/27 03:11:37;;;;;;;38.70;21.50;;;4.80;99.90;;;;;;5073348;28;20456;-72
2022/01/27 03:14:06;;;;;;;39.37;21.17;;;4.80;99.90;;;;;;5073635;28;20432;-72
2022/01/27 03:16:33;;;;;;;44.63;22.40;;;4.80;99.90;;;;;;5073463;28;20480;-71
2022/01/27 03:19:00;;;;;;;38.27;20.33;;;4.90;99.90;;;;;;5072502;28;20816;-71
2022/01/27 03:21:28;;;;;;;42.73;22.20;;;4.90;99.90;;;;;;5073195;28;20952;-72
2022/01/27 03:23:54;;;;;;;34.30;19.50;;;5.00;99.90;;;;;;5073493;28;20502;-72
2022/01/27 03:26:22;;;;;;;44.37;22.60;;;5.00;99.90;;;;;;5073111;28;20462;-72
2022/01/27 03:28:49;;;;;;;36.70;20.00;;;5.00;99.90;;;;;;5073456;28;20444;-72
2022/01/27 03:31:17;;;;;;;40.17;20.50;;;5.00;99.90;;;;;;5073393;28;20852;-72
2022/01/27 03:33:44;;;;;;;38.67;20.97;;;5.00;99.90;;;;;;5073432;28;20459;-71
2022/01/27 03:36:12;;;;;;;35.57;20.33;;;5.00;99.90;;;;;;5073350;28;21043;-72
2022/01/27 03:38:39;;;;;;;40.80;21.93;;;5.10;99.90;;;;;;5073332;28;20441;-72
2022/01/27 03:41:07;;;;;;;44.03;21.13;;;5.10;99.90;;;;;;5073394;28;20464;-72
2022/01/27 03:43:35;;;;;;;40.67;21.33;;;5.00;99.90;;;;;;5073294;28;20463;-72
2022/01/27 03:46:03;;;;;;;36.20;21.10;;;5.00;99.90;;;;;;5073247;28;20467;-72
2022/01/27 03:48:32;;;;;;;36.27;20.07;;;5.10;99.90;;;;;;5073257;28;20451;-72
2022/01/27 03:50:58;;;;;;;40.37;21.67;;;5.10;99.90;;;;;;5073265;28;20808;-72
2022/01/27 03:53:25;;;;;;;34.63;20.50;;;5.10;99.90;;;;;;5072882;28;20444;-72
2022/01/27 03:55:52;;;;;;;37.27;21.73;;;5.10;99.90;;;;;;5072721;28;20995;-72
2022/01/27 03:58:19;;;;;;;39.50;20.33;;;5.10;99.90;;;;;;5072870;28;20930;-72
2022/01/27 04:00:46;;;;;;;36.00;21.33;;;5.10;99.90;;;;;;5073102;28;20441;-72
2022/01/27 04:03:15;;;;;;;37.93;20.83;;;5.20;99.90;;;;;;5072831;28;20467;-72
2022/01/27 04:05:49;;;;;;;39.13;20.43;;;5.20;99.90;;;;;;5073027;28;20460;-72
2022/01/27 04:08:16;;;;;;;37.90;21.60;;;5.30;99.90;;;;;;5073100;28;20438;-72
2022/01/27 04:10:43;;;;;;;38.03;21.40;;;5.30;99.90;;;;;;5073087;28;20445;-72
2022/01/27 04:13:10;;;;;;;33.87;21.10;;;5.30;99.90;;;;;;5073798;28;20444;-72
2022/01/27 04:15:40;;;;;;;36.90;20.63;;;5.30;99.90;;;;;;5072896;28;20842;-72
2022/01/27 04:18:07;;;;;;;35.80;20.40;;;5.40;99.90;;;;;;5072973;28;20458;-72
2022/01/27 04:20:33;;;;;;;36.10;20.43;;;5.40;99.90;;;;;;5072939;28;20498;-72
2022/01/27 04:23:01;;;;;;;35.17;20.27;;;5.40;99.90;;;;;;5072925;28;20448;-72
2022/01/27 04:25:28;;;;;;;36.30;19.90;;;5.50;99.90;;;;;;5072820;28;20441;-71
2022/01/27 04:27:59;;;;;;;37.20;21.67;;;5.40;99.90;;;;;;5072874;28;20456;-71
2022/01/27 04:30:27;;;;;;;34.20;20.70;;;5.50;99.90;;;;;;5074710;28;20436;-71
2022/01/27 04:32:57;;;;;;;35.33;19.83;;;5.50;99.90;;;;;;5076563;28;20456;-71
2022/01/27 04:35:27;;;;;;;35.03;20.33;;;5.50;99.90;;;;;;5076080;28;21041;-72
2022/01/27 04:38:02;;;;;;;35.90;21.67;;;5.60;99.90;;;;;;5076441;28;20484;-72
2022/01/27 04:40:35;;;;;;;35.93;19.87;;;5.60;99.90;;;;;;5076461;28;20444;-72
2022/01/27 04:43:08;;;;;;;34.80;19.43;;;5.60;99.90;;;;;;5076140;28;20915;-72
2022/01/27 04:45:43;;;;;;;32.00;19.13;;;5.60;99.90;;;;;;5076286;28;20461;-72
2022/01/27 04:48:13;;;;;;;33.27;20.20;;;5.60;99.90;;;;;;5076335;28;20432;-72
2022/01/27 04:50:41;;;;;;;33.00;18.20;;;5.60;99.90;;;;;;5076008;28;20782;-72
2022/01/27 04:53:14;;;;;;;42.20;19.90;;;5.70;99.90;;;;;;5076205;28;20502;-72
2022/01/27 04:55:42;;;;;;;32.77;19.67;;;5.70;99.90;;;;;;5076536;28;20512;-71
2022/01/27 04:58:14;;;;;;;33.40;19.37;;;5.70;99.90;;;;;;5076083;28;20449;-72
2022/01/27 05:00:41;;;;;;;34.07;19.10;;;5.70;99.90;;;;;;5075786;28;20903;-72
2022/01/27 05:03:17;;;;;;;38.83;19.77;;;5.70;99.90;;;;;;5075837;28;20459;-73
2022/01/27 05:05:44;;;;;;;32.77;18.77;;;5.70;99.90;;;;;;5075938;28;20520;-71
2022/01/27 05:08:18;;;;;;;34.13;19.30;;;5.70;99.90;;;;;;5075917;28;20781;-73
2022/01/27 05:10:56;;;;;;;35.00;18.77;;;5.70;99.90;;;;;;5075618;28;20901;-73
2022/01/27 05:13:25;;;;;;;31.57;18.97;;;5.70;99.90;;;;;;5075633;28;20440;-73
2022/01/27 05:15:52;;;;;;;31.43;17.60;;;5.70;99.90;;;;;;5075700;28;20476;-73
2022/01/27 05:18:20;;;;;;;31.20;17.70;;;5.70;99.90;;;;;;5075722;28;20543;-73
2022/01/27 05:20:46;;;;;;;33.13;18.33;;;5.80;99.90;;;;;;5075844;28;20461;-73
2022/01/27 05:23:13;;;;;;;33.00;18.40;;;5.80;99.90;;;;;;5075640;28;20452;-73
2022/01/27 05:25:40;;;;;;;35.70;20.23;;;5.70;99.90;;;;;;5075210;28;20818;-73
2022/01/27 05:28:08;;;;;;;29.40;17.97;;;5.70;99.90;;;;;;5075531;28;20813;-73
2022/01/27 05:30:35;;;;;;;30.87;17.57;;;5.70;99.90;;;;;;5075495;28;20451;-73
2022/01/27 05:33:02;;;;;;;41.10;18.83;;;5.70;99.90;;;;;;5075559;28;20479;-73
2022/01/27 05:35:29;;;;;;;34.50;20.43;;;5.70;99.90;;;;;;5075273;28;20484;-73
2022/01/27 05:37:56;;;;;;;30.33;18.10;;;5.70;99.90;;;;;;5075345;28;20444;-72
2022/01/27 05:40:38;;;;;;;30.87;16.67;;;5.70;99.90;;;;;;5075359;28;20444;-73
2022/01/27 05:43:25;;;;;;;31.70;19.00;;;5.60;99.90;;;;;;5074184;28;20424;-73
2022/01/27 05:45:52;;;;;;;52.40;19.47;;;5.70;99.90;;;;;;5068842;28;20470;-73
2022/01/27 05:48:18;;;;;;;32.47;17.50;;;5.70;99.90;;;;;;5075056;28;20452;-73
2022/01/27 05:50:45;;;;;;;27.50;17.37;;;5.70;99.90;;;;;;5074736;28;20447;-73
2022/01/27 05:53:12;;;;;;;31.33;16.90;;;5.70;99.90;;;;;;5074966;28;20436;-73
2022/01/27 05:55:39;;;;;;;31.60;18.13;;;5.70;99.90;;;;;;5074963;28;20586;-73
2022/01/27 05:58:06;;;;;;;33.23;17.47;;;5.70;99.90;;;;;;5074932;28;20445;-72
2022/01/27 06:00:34;;;;;;;29.40;15.83;;;5.70;99.90;;;;;;5074937;28;20432;-72
2022/01/27 06:03:02;;;;;;;28.93;16.13;;;5.80;99.90;;;;;;5074643;28;20464;-72
2022/01/27 06:05:28;;;;;;;29.30;18.13;;;5.80;99.90;;;;;;5074731;28;20437;-72
2022/01/27 06:07:55;;;;;;;29.90;17.23;;;5.80;99.90;;;;;;5074698;28;20440;-72
2022/01/27 06:10:22;;;;;;;31.53;17.67;;;5.80;99.90;;;;;;5074621;28;20531;-72
2022/01/27 06:12:51;;;;;;;31.10;18.10;;;5.90;99.90;;;;;;5074628;28;20437;-72
2022/01/27 06:15:18;;;;;;;31.40;17.47;;;5.80;99.90;;;;;;5074380;28;20448;-72
2022/01/27 06:17:46;;;;;;;29.50;17.63;;;5.90;99.90;;;;;;5074536;28;20441;-72
2022/01/27 06:20:13;;;;;;;34.30;18.20;;;5.90;99.90;;;;;;5074212;28;21020;-72
2022/01/27 06:22:40;;;;;;;35.20;18.03;;;5.90;99.90;;;;;;5074101;28;20791;-72
2022/01/27 06:25:09;;;;;;;30.90;17.90;;;5.90;99.90;;;;;;5074096;28;20445;-72
2022/01/27 06:27:35;;;;;;;35.70;18.03;;;5.90;99.90;;;;;;5074311;28;20460;-72
2022/01/27 06:30:02;;;;;;;37.30;17.70;;;5.90;99.90;;;;;;5074249;28;20445;-72
2022/01/27 06:32:29;;;;;;;35.10;18.50;;;6.00;99.90;;;;;;5074248;28;20448;-72
2022/01/27 06:34:57;;;;;;;33.60;19.00;;;6.00;99.90;;;;;;5074232;28;20444;-72
2022/01/27 06:37:24;;;;;;;28.80;17.83;;;5.90;99.90;;;;;;5073733;28;20846;-72
2022/01/27 06:39:52;;;;;;;31.50;17.93;;;5.90;99.90;;;;;;5073856;28;20926;-72
2022/01/27 06:42:19;;;;;;;30.50;19.90;;;5.90;99.90;;;;;;5074007;28;20452;-72
2022/01/27 06:44:45;;;;;;;33.47;18.70;;;5.90;99.90;;;;;;5074130;28;20456;-72
2022/01/27 06:47:12;;;;;;;35.87;18.80;;;6.00;99.90;;;;;;5073917;28;20457;-72
2022/01/27 06:49:39;;;;;;;32.73;17.37;;;6.00;99.90;;;;;;5073928;28;20444;-73
2022/01/27 06:52:07;;;;;;;30.37;19.00;;;6.00;99.90;;;;;;5073576;28;20825;-73
2022/01/27 06:54:34;;;;;;;30.93;17.20;;;6.00;99.90;;;;;;5073901;28;20445;-72
2022/01/27 06:57:02;;;;;;;31.50;17.50;;;6.00;99.90;;;;;;5073753;28;20496;-72
2022/01/27 06:59:28;;;;;;;32.77;18.83;;;6.00;99.90;;;;;;5073847;28;20540;-72
2022/01/27 07:01:55;;;;;;;32.30;17.60;;;6.00;99.90;;;;;;5073834;28;20452;-72
2022/01/27 07:04:22;;;;;;;32.60;16.07;;;6.00;99.90;;;;;;5073374;28;20880;-72
2022/01/27 07:06:49;;;;;;;35.33;18.13;;;5.90;99.90;;;;;;5073661;28;20460;-72
2022/01/27 07:09:17;;;;;;;36.97;18.47;;;5.90;99.90;;;;;;5073720;28;20566;-72
2022/01/27 07:11:44;;;;;;;34.57;18.03;;;5.90;99.90;;;;;;5073688;28;20466;-72
2022/01/27 07:14:11;;;;;;;30.53;17.33;;;5.90;99.90;;;;;;5073618;28;20445;-72
2022/01/27 07:16:38;;;;;;;37.37;20.17;;;5.90;99.90;;;;;;5073138;28;20993;-72
2022/01/27 07:19:05;;;;;;;31.33;18.07;;;5.90;99.90;;;;;;5073555;28;20441;-72
2022/01/27 07:21:32;;;;;;;41.33;21.83;;;5.90;99.90;;;;;;5073292;28;20939;-72
2022/01/27 07:23:58;;;;;;;32.40;17.93;;;6.00;99.90;;;;;;5073554;28;20480;-73
2022/01/27 07:26:26;;;;;;;37.90;18.97;;;6.00;99.90;;;;;;5073447;28;20457;-72
2022/01/27 07:28:53;;;;;;;31.40;19.93;;;6.00;99.90;;;;;;5073204;28;20805;-72
2022/01/27 07:31:20;;;;;;;38.80;19.27;;;6.10;99.90;;;;;;5073439;28;20444;-72
2022/01/27 07:33:48;;;;;;;39.40;19.33;;;6.10;99.90;;;;;;5073399;28;20453;-72
2022/01/27 07:36:16;;;;;;;33.73;18.73;;;6.20;99.90;;;;;;5073305;28;20487;-72
2022/01/27 07:38:43;;;;;;;31.93;17.70;;;6.20;99.90;;;;;;5073408;28;20490;-71
2022/01/27 07:41:10;;;;;;;36.70;21.30;;;6.30;99.90;;;;;;5073377;28;20528;-72
2022/01/27 07:43:39;;;;;;;35.30;19.50;;;6.30;99.90;;;;;;5074139;28;20468;-72
2022/01/27 07:46:06;;;;;;;37.80;19.10;;;6.30;99.90;;;;;;5073190;28;20465;-72
2022/01/27 07:48:33;;;;;;;34.73;20.10;;;6.40;99.90;;;;;;5073323;28;20440;-72
2022/01/27 07:51:02;;;;;;;38.70;20.73;;;6.40;99.90;;;;;;5073253;28;20441;-72
2022/01/27 07:53:28;;;;;;;32.03;18.70;;;6.40;99.90;;;;;;5073191;28;20544;-72
2022/01/27 07:55:56;;;;;;;29.97;17.70;;;6.40;99.90;;;;;;5073025;28;20518;-72
2022/01/27 07:58:22;;;;;;;33.10;19.63;;;6.40;99.90;;;;;;5072846;28;20984;-72
2022/01/27 08:00:51;;;;;;;35.57;19.67;;;6.40;99.90;;;;;;5073119;28;20449;-72
2022/01/27 08:03:17;;;;;;;37.73;19.20;;;6.40;99.90;;;;;;5072868;28;20456;-73
2022/01/27 08:05:44;;;;;;;34.10;18.80;;;6.40;99.90;;;;;;5075431;28;20464;-72
2022/01/27 08:08:10;;;;;;;33.27;18.80;;;6.50;99.90;;;;;;5077040;28;20448;-72
2022/01/27 08:10:38;;;;;;;37.10;18.60;;;6.50;99.90;;;;;;5076675;28;20854;-72
2022/01/27 08:13:05;;;;;;;36.87;19.27;;;6.40;99.90;;;;;;5076965;28;20445;-72
2022/01/27 08:15:32;;;;;;;34.00;19.37;;;6.40;99.90;;;;;;5076860;28;20928;-72
2022/01/27 08:18:00;;;;;;;31.30;17.70;;;6.40;99.90;;;;;;5076448;28;21024;-72
2022/01/27 08:20:27;;;;;;;30.77;19.07;;;6.40;99.90;;;;;;5076849;28;20448;-71
2022/01/27 08:22:55;;;;;;;34.67;19.40;;;6.40;99.90;;;;;;5076657;28;20448;-71
2022/01/27 08:25:22;;;;;;;42.90;22.57;;;6.40;99.90;;;;;;5076701;28;20815;-72
2022/01/27 08:27:52;;;;;;;38.70;20.33;;;6.40;99.90;;;;;;5076357;28;20444;-71
2022/01/27 08:30:21;;;;;;;37.73;20.43;;;6.40;99.90;;;;;;5076332;28;20897;-71
2022/01/27 08:32:55;;;;;;;33.70;19.50;;;6.40;99.90;;;;;;5076602;28;20477;-72
2022/01/27 08:35:24;;;;;;;37.57;22.47;;;6.40;99.90;;;;;;5076165;28;20778;-72
2022/01/27 08:37:51;;;;;;;44.97;21.60;;;6.30;99.90;;;;;;5076416;28;20476;-71
2022/01/27 08:40:19;;;;;;;42.97;21.83;;;6.30;99.90;;;;;;5076442;28;20452;-71
2022/01/27 08:42:46;;;;;;;45.20;23.37;;;6.20;99.90;;;;;;5076080;28;20953;-72
2022/01/27 08:45:15;;;;;;;45.63;22.70;;;6.10;99.90;;;;;;5076439;28;20440;-72
2022/01/27 08:47:42;;;;;;;46.27;24.20;;;6.20;99.90;;;;;;5076464;28;20455;-71
2022/01/27 08:50:11;;;;;;;44.40;22.00;;;6.20;99.90;;;;;;5076289;28;20471;-72
2022/01/27 08:52:41;;;;;;;39.80;23.03;;;6.10;99.90;;;;;;5076379;28;20441;-72
2022/01/27 08:55:08;;;;;;;45.20;22.93;;;6.10;99.90;;;;;;5076269;28;20445;-72
2022/01/27 08:57:36;;;;;;;42.03;22.50;;;6.10;99.90;;;;;;5076023;28;20534;-72
2022/01/27 09:00:05;;;;;;;40.80;23.03;;;6.10;99.90;;;;;;5076157;28;20452;-72
2022/01/27 09:02:32;;;;;;;40.73;21.97;;;6.10;99.90;;;;;;5075632;28;20445;-72
2022/01/27 09:04:58;;;;;;;46.77;24.03;;;6.00;99.90;;;;;;5076045;28;20436;-72
2022/01/27 09:07:25;;;;;;;47.37;25.00;;;6.00;99.90;;;;;;5075600;28;20835;-72
2022/01/27 09:09:53;;;;;;;41.43;21.70;;;6.00;99.90;;;;;;5075920;28;20452;-72
2022/01/27 09:12:20;;;;;;;41.23;21.90;;;6.00;99.90;;;;;;5075899;28;20444;-72
2022/01/27 09:14:47;;;;;;;38.17;22.50;;;6.00;99.90;;;;;;5075834;28;20440;-73
2022/01/27 09:17:15;;;;;;;43.17;24.17;;;6.10;99.90;;;;;;5074495;28;20485;-73
2022/01/27 09:19:46;;;;;;;44.40;24.30;;;6.10;99.90;;;;;;5075765;28;20441;-73
2022/01/27 09:22:16;;;;;;;45.17;23.77;;;6.20;99.90;;;;;;5075789;28;20425;-73
2022/01/27 09:24:52;;;;;;;46.40;24.63;;;6.20;99.90;;;;;;5075804;28;20456;-73
2022/01/27 09:27:21;;;;;;;37.43;21.00;;;6.20;99.90;;;;;;5075566;28;20467;-73
2022/01/27 09:29:48;;;;;;;44.77;23.20;;;6.20;99.90;;;;;;5075694;28;20429;-73
2022/01/27 09:32:15;;;;;;;39.17;23.20;;;6.20;99.90;;;;;;5075569;28;20433;-73
2022/01/27 09:34:42;;;;;;;37.20;20.20;;;6.20;99.90;;;;;;5075792;28;20927;-74
2022/01/27 09:37:09;;;;;;;41.07;24.53;;;6.20;99.90;;;;;;5075257;28;20496;-74
2022/01/27 09:39:36;;;;;;;41.37;24.20;;;6.20;99.90;;;;;;5076188;28;20827;-73
2022/01/27 09:42:06;;;;;;;48.90;23.37;;;6.20;99.90;;;;;;5074972;28;21053;-73
2022/01/27 09:44:36;;;;;;;42.13;23.13;;;6.10;99.90;;;;;;5075857;28;20425;-73
2022/01/27 09:47:06;;;;;;;41.77;23.33;;;6.20;99.90;;;;;;5074890;28;20967;-73
2022/01/27 09:49:37;;;;;;;40.93;22.90;;;6.30;99.90;;;;;;5075174;28;20440;-73
2022/01/27 09:52:05;;;;;;;47.17;22.97;;;6.30;99.90;;;;;;5075865;28;20478;-74
2022/01/27 09:54:32;;;;;;;46.93;22.43;;;6.30;99.90;;;;;;5074798;28;20467;-74
2022/01/27 09:56:59;;;;;;;35.47;22.10;;;6.30;99.90;;;;;;5074879;28;20903;-74
2022/01/27 09:59:26;;;;;;;38.10;21.07;;;6.30;99.90;;;;;;5074664;28;20440;-73
2022/01/27 10:01:56;;;;;;;39.70;23.00;;;6.30;99.90;;;;;;5074917;28;20460;-73
2022/01/27 10:04:26;;;;;;;37.00;20.30;;;6.40;99.90;;;;;;5074445;28;20491;-73
2022/01/27 10:06:58;;;;;;;38.83;23.73;;;6.30;99.90;;;;;;5074838;28;20468;-74
2022/01/27 10:09:27;;;;;;;45.10;22.10;;;6.30;99.90;;;;;;5074915;28;20428;-73
2022/01/27 10:11:55;;;;;;;45.13;23.50;;;6.40;99.90;;;;;;5074766;28;20449;-73
2022/01/27 10:14:25;;;;;;;34.00;20.20;;;6.40;99.90;;;;;;5074665;28;20524;-73
2022/01/27 10:16:54;;;;;;;37.20;20.47;;;6.50;99.90;;;;;;5074505;28;20479;-73
2022/01/27 10:19:23;;;;;;;36.23;20.40;;;6.50;99.90;;;;;;5075108;28;20484;-73
2022/01/27 10:21:51;;;;;;;31.03;18.77;;;6.60;99.90;;;;;;5074571;28;20445;-73
2022/01/27 10:24:23;;;;;;;34.00;20.33;;;6.60;99.90;;;;;;5074468;28;20543;-73
2022/01/27 10:27:16;;;;;;;37.67;21.03;;;6.60;99.90;;;;;;5074094;28;20895;-73
2022/01/27 10:30:01;;;;;;;35.20;18.80;;;6.70;99.90;;;;;;5074133;28;20429;-73
2022/01/27 10:32:39;;;;;;;30.27;16.70;;;6.70;99.90;;;;;;5074057;28;20899;-72
2022/01/27 10:35:07;;;;;;;33.67;18.80;;;6.70;99.90;;;;;;5074322;28;20429;-72
2022/01/27 10:37:51;;;;;;;28.20;18.27;;;6.70;99.90;;;;;;5073808;28;20481;-73
2022/01/27 10:40:21;;;;;;;28.33;17.00;;;6.70;99.90;;;;;;5074210;28;20429;-72
2022/01/27 10:43:07;;;;;;;31.60;19.63;;;6.80;99.90;;;;;;5074156;28;20647;-72
2022/01/27 10:45:35;;;;;;;29.53;18.37;;;6.80;99.90;;;;;;5074691;28;20475;-73
2022/01/27 10:48:17;;;;;;;31.13;18.00;;;6.70;99.90;;;;;;5073959;28;20443;-73
2022/01/27 10:50:49;;;;;;;27.60;16.10;;;6.80;99.90;;;;;;5073699;28;20929;-73
2022/01/27 10:53:17;;;;;;;29.43;18.00;;;6.80;99.90;;;;;;5073664;28;20894;-73
2022/01/27 10:55:43;;;;;;;28.90;17.67;;;6.80;99.90;;;;;;5073823;28;20461;-73
2022/01/27 10:58:26;;;;;;;35.20;20.73;;;6.80;99.90;;;;;;5073802;28;20482;-73
2022/01/27 11:00:59;;;;;;;31.40;18.43;;;6.80;99.90;;;;;;5073801;28;20452;-73
2022/01/27 11:03:26;;;;;;;33.87;19.10;;;6.80;99.90;;;;;;5073628;28;20460;-73
2022/01/27 11:05:54;;;;;;;33.67;20.40;;;6.80;99.90;;;;;;5073381;28;20518;-73
2022/01/27 11:08:21;;;;;;;34.03;19.53;;;6.80;99.90;;;;;;5073766;28;20445;-73
2022/01/27 11:10:50;;;;;;;31.03;18.07;;;6.90;99.90;;;;;;5073946;28;20451;-72
2022/01/27 11:13:17;;;;;;;31.27;19.83;;;7.00;99.90;;;;;;5073650;28;20451;-72
2022/01/27 11:15:45;;;;;;;30.77;18.70;;;7.00;99.90;;;;;;5073628;28;20467;-73
2022/01/27 11:18:14;;;;;;;29.63;18.60;;;7.00;99.90;;;;;;5073267;28;20468;-72
2022/01/27 11:20:53;;;;;;;31.77;19.40;;;7.00;99.90;;;;;;5073557;28;20445;-72
2022/01/27 11:23:46;;;;;;;31.00;19.77;;;7.00;99.90;;;;;;5073607;28;20433;-72
2022/01/27 11:26:19;;;;;;;34.70;20.00;;;7.00;99.90;;;;;;5073097;28;20457;-72
2022/01/27 11:28:47;;;;;;;34.13;20.50;;;7.00;99.90;;;;;;5073557;28;20436;-73
2022/01/27 11:31:29;;;;;;;32.13;20.40;;;7.00;99.90;;;;;;5073128;28;20980;-73
2022/01/27 11:34:02;;;;;;;31.10;19.20;;;7.00;99.90;;;;;;5073428;28;20433;-73
2022/01/27 11:36:30;;;;;;;26.80;17.60;;;7.00;99.90;;;;;;5073285;28;20512;-72
2022/01/27 11:38:58;;;;;;;30.23;18.93;;;7.00;99.90;;;;;;5072978;28;20504;-73
2022/01/27 11:41:44;;;;;;;26.93;18.80;;;7.00;99.90;;;;;;5073038;28;20510;-73
2022/01/27 11:44:32;;;;;;;30.10;18.97;;;7.10;99.90;;;;;;5073010;28;20471;-72
2022/01/27 11:47:19;;;;;;;29.23;18.10;;;7.10;99.90;;;;;;5073305;28;20468;-72
2022/01/27 11:50:00;;;;;;;29.50;18.40;;;7.10;99.90;;;;;;5073185;28;20547;-73
2022/01/27 11:52:29;;;;;;;26.97;16.93;;;7.00;99.90;;;;;;5072967;28;20531;-73
2022/01/27 11:54:58;;;;;;;25.77;17.60;;;7.10;99.90;;;;;;5073230;28;20448;-73
2022/01/27 11:57:45;;;;;;;23.03;15.50;;;7.10;99.90;;;;;;5072729;28;20487;-72
2022/01/27 12:00:15;;;;;;;26.40;17.97;;;7.10;99.90;;;;;;5073167;28;20439;-72
2022/01/27 12:03:12;;;;;;;30.87;18.60;;;7.10;99.90;;;;;;5073278;28;20912;-73
2022/01/27 12:05:42;;;;;;;29.73;17.87;;;7.10;99.90;;;;;;5073050;28;20474;-73
2022/01/27 12:08:25;;;;;;;28.10;17.30;;;7.10;99.90;;;;;;5073089;28;20446;-74
2022/01/27 12:10:56;;;;;;;29.10;17.50;;;7.10;99.90;;;;;;5073045;28;20433;-73
2022/01/27 12:14:01;;;;;;;25.47;17.20;;;7.20;99.90;;;;;;5073184;28;20429;-73
2022/01/27 12:16:51;;;;;;;24.53;17.03;;;7.20;99.90;;;;;;5072669;28;20476;-73
2022/01/27 12:19:17;;;;;;;27.03;16.07;;;7.10;99.90;;;;;;5072853;28;20471;-73
2022/01/27 12:21:59;;;;;;;24.10;17.03;;;7.10;99.90;;;;;;5073102;28;20494;-73
2022/01/27 12:24:28;;;;;;;23.73;15.10;;;7.10;99.90;;;;;;5073109;28;20437;-73
2022/01/27 12:26:57;;;;;;;32.37;16.40;;;7.10;99.90;;;;;;5072564;28;20494;-72
2022/01/27 12:29:27;;;;;;;23.33;15.03;;;7.20;99.90;;;;;;5072886;28;20452;-72
2022/01/27 12:31:56;;;;;;;22.50;15.53;;;7.20;99.90;;;;;;5072910;28;20445;-72
2022/01/27 12:34:23;;;;;;;25.13;16.10;;;7.30;99.90;;;;;;5073689;28;20441;-72
2022/01/27 12:36:56;;;;;;;24.67;16.10;;;7.20;99.90;;;;;;5072744;28;20467;-72
2022/01/27 12:39:25;;;;;;;21.90;16.10;;;7.20;99.90;;;;;;5072817;28;20468;-72
2022/01/27 12:41:53;;;;;;;24.03;15.90;;;7.30;99.90;;;;;;5072758;28;20448;-72
2022/01/27 12:44:20;;;;;;;25.23;15.07;;;7.30;99.90;;;;;;5072765;28;20552;-72
2022/01/27 12:47:04;;;;;;;22.60;16.33;;;7.30;99.90;;;;;;5072337;28;20463;-73
2022/01/27 12:49:40;;;;;;;20.40;14.77;;;7.30;99.90;;;;;;5072748;28;20445;-72
2022/01/27 12:52:11;;;;;;;21.90;14.73;;;7.30;99.90;;;;;;5075499;28;20441;-72
2022/01/27 12:54:39;;;;;;;22.13;15.50;;;7.30;99.90;;;;;;5076326;28;20436;-72
2022/01/27 12:57:07;;;;;;;23.53;15.70;;;7.30;99.90;;;;;;5076112;28;20461;-72
2022/01/27 12:59:36;;;;;;;26.20;16.77;;;7.40;99.90;;;;;;5076045;28;20476;-72
2022/01/27 13:02:05;;;;;;;21.13;13.97;;;7.40;99.90;;;;;;5076193;28;20448;-73
2022/01/27 13:04:33;;;;;;;22.63;14.50;;;7.40;99.90;;;;;;5075700;28;20559;-73
2022/01/27 13:07:00;;;;;;;20.13;13.90;;;7.30;99.90;;;;;;5075692;28;20973;-73
2022/01/27 13:09:30;;;;;;;18.97;13.40;;;7.30;99.90;;;;;;5076041;28;20448;-73
2022/01/27 13:11:59;;;;;;;18.00;13.80;;;7.30;99.90;;;;;;5075960;28;20456;-73
2022/01/27 13:14:27;;;;;;;19.30;13.10;;;7.40;99.90;;;;;;5075881;28;20448;-73